sensor_id;sensor_type;location;lat;lon;timestamp;P1;durP1;ratioP1;P2;durP2;ratioP2
35506;SDS011;36461;52.018;21.036;2022-12-18T00:01:18;43.65;;;22.32;;
35506;SDS011;36461;52.018;21.036;2022-12-18T00:03:48;30.37;;;16.32;;
35506;SDS011;36461;52.018;21.036;2022-12-18T00:08:42;34.30;;;18.02;;
35506;SDS011;36461;52.018;21.036;2022-12-18T00:11:19;30.32;;;17.17;;
35506;SDS011;36461;52.018;21.036;2022-12-18T00:13:49;34.23;;;19.75;;
35506;SDS011;36461;52.018;21.036;2022-12-18T00:16:18;33.23;;;17.82;;
35506;SDS011;36461;52.018;21.036;2022-12-18T00:18:52;32.75;;;17.30;;
35506;SDS011;36461;52.018;21.036;2022-12-18T00:21:20;35.13;;;19.42;;
35506;SDS011;36461;52.018;21.036;2022-12-18T00:23:48;28.50;;;17.20;;
35506;SDS011;36461;52.018;21.036;2022-12-18T00:26:17;28.35;;;17.27;;
35506;SDS011;36461;52.018;21.036;2022-12-18T00:28:57;34.35;;;19.27;;
35506;SDS011;36461;52.018;21.036;2022-12-18T00:31:29;28.92;;;16.75;;
35506;SDS011;36461;52.018;21.036;2022-12-18T00:33:58;30.55;;;17.85;;
35506;SDS011;36461;52.018;21.036;2022-12-18T00:36:34;30.45;;;18.50;;
35506;SDS011;36461;52.018;21.036;2022-12-18T00:39:02;28.83;;;16.80;;
35506;SDS011;36461;52.018;21.036;2022-12-18T00:41:30;32.60;;;18.85;;
35506;SDS011;36461;52.018;21.036;2022-12-18T00:44:16;31.73;;;17.73;;
35506;SDS011;36461;52.018;21.036;2022-12-18T00:46:44;29.65;;;17.42;;
35506;SDS011;36461;52.018;21.036;2022-12-18T00:49:12;34.18;;;18.05;;
35506;SDS011;36461;52.018;21.036;2022-12-18T00:51:39;29.15;;;18.12;;
35506;SDS011;36461;52.018;21.036;2022-12-18T00:54:06;30.43;;;18.25;;
35506;SDS011;36461;52.018;21.036;2022-12-18T00:56:34;32.50;;;18.32;;
35506;SDS011;36461;52.018;21.036;2022-12-18T00:59:03;35.63;;;19.48;;
35506;SDS011;36461;52.018;21.036;2022-12-18T01:01:30;34.35;;;18.67;;
35506;SDS011;36461;52.018;21.036;2022-12-18T01:03:59;37.15;;;21.12;;
35506;SDS011;36461;52.018;21.036;2022-12-18T01:06:28;36.08;;;18.73;;
35506;SDS011;36461;52.018;21.036;2022-12-18T01:08:54;34.90;;;19.80;;
35506;SDS011;36461;52.018;21.036;2022-12-18T01:11:21;34.65;;;20.65;;
35506;SDS011;36461;52.018;21.036;2022-12-18T01:13:48;33.30;;;18.50;;
35506;SDS011;36461;52.018;21.036;2022-12-18T01:16:16;38.23;;;19.98;;
35506;SDS011;36461;52.018;21.036;2022-12-18T01:18:43;36.00;;;19.73;;
35506;SDS011;36461;52.018;21.036;2022-12-18T01:21:13;34.35;;;19.67;;
35506;SDS011;36461;52.018;21.036;2022-12-18T01:23:41;32.08;;;17.90;;
35506;SDS011;36461;52.018;21.036;2022-12-18T01:26:13;30.65;;;18.90;;
35506;SDS011;36461;52.018;21.036;2022-12-18T01:28:42;40.05;;;21.17;;
35506;SDS011;36461;52.018;21.036;2022-12-18T01:31:19;33.40;;;19.32;;
35506;SDS011;36461;52.018;21.036;2022-12-18T01:33:54;31.45;;;17.52;;
35506;SDS011;36461;52.018;21.036;2022-12-18T01:36:23;30.82;;;18.77;;
35506;SDS011;36461;52.018;21.036;2022-12-18T01:38:54;34.27;;;18.90;;
35506;SDS011;36461;52.018;21.036;2022-12-18T01:41:23;34.25;;;18.90;;
35506;SDS011;36461;52.018;21.036;2022-12-18T01:43:56;33.60;;;18.23;;
35506;SDS011;36461;52.018;21.036;2022-12-18T01:46:24;37.95;;;20.37;;
35506;SDS011;36461;52.018;21.036;2022-12-18T01:48:55;35.35;;;19.15;;
35506;SDS011;36461;52.018;21.036;2022-12-18T01:51:24;35.30;;;19.35;;
35506;SDS011;36461;52.018;21.036;2022-12-18T01:53:53;32.60;;;18.10;;
35506;SDS011;36461;52.018;21.036;2022-12-18T01:58:56;36.65;;;19.10;;
35506;SDS011;36461;52.018;21.036;2022-12-18T02:01:31;36.08;;;18.70;;
35506;SDS011;36461;52.018;21.036;2022-12-18T02:04:20;35.25;;;18.40;;
35506;SDS011;36461;52.018;21.036;2022-12-18T02:06:57;33.35;;;17.73;;
35506;SDS011;36461;52.018;21.036;2022-12-18T02:09:48;39.30;;;19.35;;
35506;SDS011;36461;52.018;21.036;2022-12-18T02:12:24;34.53;;;18.40;;
35506;SDS011;36461;52.018;21.036;2022-12-18T02:15:09;32.85;;;17.52;;
35506;SDS011;36461;52.018;21.036;2022-12-18T02:17:55;30.77;;;16.10;;
35506;SDS011;36461;52.018;21.036;2022-12-18T02:31:43;31.07;;;16.00;;
35506;SDS011;36461;52.018;21.036;2022-12-18T02:34:18;37.88;;;20.12;;
35506;SDS011;36461;52.018;21.036;2022-12-18T02:36:49;42.60;;;21.75;;
35506;SDS011;36461;52.018;21.036;2022-12-18T02:39:19;43.48;;;21.15;;
35506;SDS011;36461;52.018;21.036;2022-12-18T02:41:49;37.63;;;19.23;;
35506;SDS011;36461;52.018;21.036;2022-12-18T02:44:17;33.00;;;18.10;;
35506;SDS011;36461;52.018;21.036;2022-12-18T02:46:49;36.88;;;17.87;;
35506;SDS011;36461;52.018;21.036;2022-12-18T02:52:13;36.05;;;19.23;;
35506;SDS011;36461;52.018;21.036;2022-12-18T02:55:34;35.50;;;18.57;;
35506;SDS011;36461;52.018;21.036;2022-12-18T03:00:14;29.30;;;17.20;;
35506;SDS011;36461;52.018;21.036;2022-12-18T03:02:55;39.75;;;20.17;;
35506;SDS011;36461;52.018;21.036;2022-12-18T03:05:29;38.83;;;19.00;;
35506;SDS011;36461;52.018;21.036;2022-12-18T03:08:06;36.50;;;19.37;;
35506;SDS011;36461;52.018;21.036;2022-12-18T03:10:45;34.78;;;18.23;;
35506;SDS011;36461;52.018;21.036;2022-12-18T03:13:12;37.58;;;18.92;;
35506;SDS011;36461;52.018;21.036;2022-12-18T03:15:44;29.57;;;17.77;;
35506;SDS011;36461;52.018;21.036;2022-12-18T03:18:18;37.13;;;18.15;;
35506;SDS011;36461;52.018;21.036;2022-12-18T03:20:48;32.70;;;17.62;;
35506;SDS011;36461;52.018;21.036;2022-12-18T03:23:21;30.02;;;17.23;;
35506;SDS011;36461;52.018;21.036;2022-12-18T03:25:51;32.42;;;17.62;;
35506;SDS011;36461;52.018;21.036;2022-12-18T03:28:23;35.17;;;18.73;;
35506;SDS011;36461;52.018;21.036;2022-12-18T03:30:53;33.53;;;18.07;;
35506;SDS011;36461;52.018;21.036;2022-12-18T03:33:31;39.08;;;19.62;;
35506;SDS011;36461;52.018;21.036;2022-12-18T03:36:08;34.60;;;17.65;;
35506;SDS011;36461;52.018;21.036;2022-12-18T03:38:34;31.57;;;17.95;;
35506;SDS011;36461;52.018;21.036;2022-12-18T03:48:58;36.13;;;18.25;;
35506;SDS011;36461;52.018;21.036;2022-12-18T03:54:19;32.05;;;17.20;;
35506;SDS011;36461;52.018;21.036;2022-12-18T03:56:51;31.65;;;17.32;;
35506;SDS011;36461;52.018;21.036;2022-12-18T03:59:21;37.30;;;18.98;;
35506;SDS011;36461;52.018;21.036;2022-12-18T04:01:49;33.30;;;18.23;;
35506;SDS011;36461;52.018;21.036;2022-12-18T04:04:19;41.40;;;19.77;;
35506;SDS011;36461;52.018;21.036;2022-12-18T04:06:47;35.63;;;18.73;;
35506;SDS011;36461;52.018;21.036;2022-12-18T04:09:17;36.13;;;18.60;;
35506;SDS011;36461;52.018;21.036;2022-12-18T04:11:45;36.03;;;19.10;;
35506;SDS011;36461;52.018;21.036;2022-12-18T04:14:14;31.77;;;17.12;;
35506;SDS011;36461;52.018;21.036;2022-12-18T04:16:41;34.55;;;19.52;;
35506;SDS011;36461;52.018;21.036;2022-12-18T04:19:09;36.60;;;19.10;;
35506;SDS011;36461;52.018;21.036;2022-12-18T04:21:38;33.90;;;17.52;;
35506;SDS011;36461;52.018;21.036;2022-12-18T04:26:33;37.03;;;18.77;;
35506;SDS011;36461;52.018;21.036;2022-12-18T04:29:11;34.78;;;18.23;;
35506;SDS011;36461;52.018;21.036;2022-12-18T04:31:38;35.23;;;18.60;;
35506;SDS011;36461;52.018;21.036;2022-12-18T04:34:04;33.95;;;18.07;;
35506;SDS011;36461;52.018;21.036;2022-12-18T04:36:33;37.33;;;18.73;;
35506;SDS011;36461;52.018;21.036;2022-12-18T04:39:00;31.80;;;17.00;;
35506;SDS011;36461;52.018;21.036;2022-12-18T04:41:26;40.08;;;20.15;;
35506;SDS011;36461;52.018;21.036;2022-12-18T04:43:53;39.98;;;19.65;;
35506;SDS011;36461;52.018;21.036;2022-12-18T04:46:19;33.92;;;17.92;;
35506;SDS011;36461;52.018;21.036;2022-12-18T04:48:46;36.38;;;19.00;;
35506;SDS011;36461;52.018;21.036;2022-12-18T04:51:13;35.48;;;18.40;;
35506;SDS011;36461;52.018;21.036;2022-12-18T04:56:07;32.25;;;16.65;;
35506;SDS011;36461;52.018;21.036;2022-12-18T04:58:38;32.70;;;18.55;;
35506;SDS011;36461;52.018;21.036;2022-12-18T05:01:06;39.73;;;18.98;;
35506;SDS011;36461;52.018;21.036;2022-12-18T05:03:34;34.43;;;18.45;;
35506;SDS011;36461;52.018;21.036;2022-12-18T05:06:02;37.48;;;19.50;;
35506;SDS011;36461;52.018;21.036;2022-12-18T05:08:30;37.50;;;18.82;;
35506;SDS011;36461;52.018;21.036;2022-12-18T05:11:02;39.75;;;19.45;;
35506;SDS011;36461;52.018;21.036;2022-12-18T05:13:32;34.35;;;18.23;;
35506;SDS011;36461;52.018;21.036;2022-12-18T05:15:59;36.00;;;18.27;;
35506;SDS011;36461;52.018;21.036;2022-12-18T05:18:26;33.50;;;17.20;;
35506;SDS011;36461;52.018;21.036;2022-12-18T05:20:54;37.90;;;19.12;;
35506;SDS011;36461;52.018;21.036;2022-12-18T05:23:22;38.70;;;18.42;;
35506;SDS011;36461;52.018;21.036;2022-12-18T05:25:51;31.52;;;17.12;;
35506;SDS011;36461;52.018;21.036;2022-12-18T05:28:25;33.23;;;17.52;;
35506;SDS011;36461;52.018;21.036;2022-12-18T05:30:55;33.73;;;17.02;;
35506;SDS011;36461;52.018;21.036;2022-12-18T05:33:25;35.00;;;17.73;;
35506;SDS011;36461;52.018;21.036;2022-12-18T05:35:58;32.28;;;17.35;;
35506;SDS011;36461;52.018;21.036;2022-12-18T05:38:30;34.55;;;18.27;;
35506;SDS011;36461;52.018;21.036;2022-12-18T05:40:58;38.05;;;19.35;;
35506;SDS011;36461;52.018;21.036;2022-12-18T05:43:25;38.30;;;19.20;;
35506;SDS011;36461;52.018;21.036;2022-12-18T05:45:54;38.42;;;19.27;;
35506;SDS011;36461;52.018;21.036;2022-12-18T05:48:22;31.00;;;16.82;;
35506;SDS011;36461;52.018;21.036;2022-12-18T05:53:17;34.88;;;17.67;;
35506;SDS011;36461;52.018;21.036;2022-12-18T05:55:46;33.78;;;18.12;;
35506;SDS011;36461;52.018;21.036;2022-12-18T05:58:13;34.75;;;17.95;;
35506;SDS011;36461;52.018;21.036;2022-12-18T06:03:08;33.42;;;17.30;;
35506;SDS011;36461;52.018;21.036;2022-12-18T06:05:38;34.55;;;17.65;;
35506;SDS011;36461;52.018;21.036;2022-12-18T06:08:07;36.17;;;19.05;;
35506;SDS011;36461;52.018;21.036;2022-12-18T06:10:34;35.78;;;19.32;;
35506;SDS011;36461;52.018;21.036;2022-12-18T06:17:53;34.60;;;18.10;;
35506;SDS011;36461;52.018;21.036;2022-12-18T06:20:20;36.38;;;18.00;;
35506;SDS011;36461;52.018;21.036;2022-12-18T06:22:47;37.23;;;18.70;;
35506;SDS011;36461;52.018;21.036;2022-12-18T06:25:13;38.63;;;19.37;;
35506;SDS011;36461;52.018;21.036;2022-12-18T06:27:40;37.30;;;19.07;;
35506;SDS011;36461;52.018;21.036;2022-12-18T06:30:07;39.78;;;19.35;;
35506;SDS011;36461;52.018;21.036;2022-12-18T06:32:35;42.95;;;20.35;;
35506;SDS011;36461;52.018;21.036;2022-12-18T06:35:02;34.48;;;18.48;;
35506;SDS011;36461;52.018;21.036;2022-12-18T06:37:30;37.93;;;19.82;;
35506;SDS011;36461;52.018;21.036;2022-12-18T06:39:57;36.73;;;18.62;;
35506;SDS011;36461;52.018;21.036;2022-12-18T06:42:23;35.52;;;18.52;;
35506;SDS011;36461;52.018;21.036;2022-12-18T06:44:50;35.68;;;18.42;;
35506;SDS011;36461;52.018;21.036;2022-12-18T06:47:17;33.63;;;17.75;;
35506;SDS011;36461;52.018;21.036;2022-12-18T06:49:44;30.48;;;16.45;;
35506;SDS011;36461;52.018;21.036;2022-12-18T06:52:10;38.83;;;21.25;;
35506;SDS011;36461;52.018;21.036;2022-12-18T06:54:37;37.17;;;18.85;;
35506;SDS011;36461;52.018;21.036;2022-12-18T06:57:03;37.55;;;19.25;;
35506;SDS011;36461;52.018;21.036;2022-12-18T06:59:30;38.08;;;18.27;;
35506;SDS011;36461;52.018;21.036;2022-12-18T07:01:56;35.52;;;18.80;;
35506;SDS011;36461;52.018;21.036;2022-12-18T07:04:27;41.73;;;19.65;;
35506;SDS011;36461;52.018;21.036;2022-12-18T07:06:55;38.78;;;19.40;;
35506;SDS011;36461;52.018;21.036;2022-12-18T07:09:21;39.00;;;19.87;;
35506;SDS011;36461;52.018;21.036;2022-12-18T07:14:15;32.78;;;17.57;;
35506;SDS011;36461;52.018;21.036;2022-12-18T07:16:41;34.18;;;18.12;;
35506;SDS011;36461;52.018;21.036;2022-12-18T07:19:08;36.15;;;19.42;;
35506;SDS011;36461;52.018;21.036;2022-12-18T07:21:34;35.20;;;18.15;;
35506;SDS011;36461;52.018;21.036;2022-12-18T07:24:01;36.13;;;17.70;;
35506;SDS011;36461;52.018;21.036;2022-12-18T07:28:55;33.85;;;17.07;;
35506;SDS011;36461;52.018;21.036;2022-12-18T07:31:24;32.95;;;17.57;;
35506;SDS011;36461;52.018;21.036;2022-12-18T07:33:52;32.13;;;17.60;;
35506;SDS011;36461;52.018;21.036;2022-12-18T07:38:47;39.48;;;17.87;;
35506;SDS011;36461;52.018;21.036;2022-12-18T07:41:16;32.30;;;17.23;;
35506;SDS011;36461;52.018;21.036;2022-12-18T07:43:44;36.13;;;18.07;;
35506;SDS011;36461;52.018;21.036;2022-12-18T07:48:42;38.90;;;18.10;;
35506;SDS011;36461;52.018;21.036;2022-12-18T07:51:12;38.40;;;19.48;;
35506;SDS011;36461;52.018;21.036;2022-12-18T07:53:38;37.03;;;20.68;;
35506;SDS011;36461;52.018;21.036;2022-12-18T07:56:07;40.25;;;19.90;;
35506;SDS011;36461;52.018;21.036;2022-12-18T07:58:36;39.15;;;18.80;;
35506;SDS011;36461;52.018;21.036;2022-12-18T08:01:08;44.15;;;20.65;;
35506;SDS011;36461;52.018;21.036;2022-12-18T08:03:37;32.23;;;16.85;;
35506;SDS011;36461;52.018;21.036;2022-12-18T08:06:06;37.48;;;19.37;;
35506;SDS011;36461;52.018;21.036;2022-12-18T08:08:35;42.83;;;20.88;;
35506;SDS011;36461;52.018;21.036;2022-12-18T08:11:03;37.30;;;19.15;;
35506;SDS011;36461;52.018;21.036;2022-12-18T08:13:30;36.20;;;17.50;;
35506;SDS011;36461;52.018;21.036;2022-12-18T08:16:07;33.92;;;18.17;;
35506;SDS011;36461;52.018;21.036;2022-12-18T08:21:11;37.20;;;17.55;;
35506;SDS011;36461;52.018;21.036;2022-12-18T08:23:49;36.42;;;17.67;;
35506;SDS011;36461;52.018;21.036;2022-12-18T08:26:17;36.73;;;18.62;;
35506;SDS011;36461;52.018;21.036;2022-12-18T08:28:44;40.12;;;19.55;;
35506;SDS011;36461;52.018;21.036;2022-12-18T08:31:14;34.03;;;17.37;;
35506;SDS011;36461;52.018;21.036;2022-12-18T08:33:41;31.27;;;16.77;;
35506;SDS011;36461;52.018;21.036;2022-12-18T08:38:35;34.98;;;17.23;;
35506;SDS011;36461;52.018;21.036;2022-12-18T08:43:34;37.20;;;18.90;;
35506;SDS011;36461;52.018;21.036;2022-12-18T08:46:20;39.95;;;20.37;;
35506;SDS011;36461;52.018;21.036;2022-12-18T08:48:54;35.30;;;18.52;;
35506;SDS011;36461;52.018;21.036;2022-12-18T08:51:19;39.83;;;21.62;;
35506;SDS011;36461;52.018;21.036;2022-12-18T08:53:47;39.40;;;20.77;;
35506;SDS011;36461;52.018;21.036;2022-12-18T08:58:40;35.68;;;19.80;;
35506;SDS011;36461;52.018;21.036;2022-12-18T09:01:09;46.58;;;23.47;;
35506;SDS011;36461;52.018;21.036;2022-12-18T09:03:37;40.23;;;20.90;;
35506;SDS011;36461;52.018;21.036;2022-12-18T09:06:05;38.53;;;21.00;;
35506;SDS011;36461;52.018;21.036;2022-12-18T09:08:32;39.53;;;21.40;;
35506;SDS011;36461;52.018;21.036;2022-12-18T09:10:59;35.98;;;18.15;;
35506;SDS011;36461;52.018;21.036;2022-12-18T09:13:26;44.60;;;23.38;;
35506;SDS011;36461;52.018;21.036;2022-12-18T09:15:53;39.95;;;22.17;;
35506;SDS011;36461;52.018;21.036;2022-12-18T09:18:21;46.70;;;25.17;;
35506;SDS011;36461;52.018;21.036;2022-12-18T09:20:50;46.23;;;23.20;;
35506;SDS011;36461;52.018;21.036;2022-12-18T09:23:18;41.42;;;22.17;;
35506;SDS011;36461;52.018;21.036;2022-12-18T09:25:46;38.17;;;20.57;;
35506;SDS011;36461;52.018;21.036;2022-12-18T09:28:15;37.00;;;21.73;;
35506;SDS011;36461;52.018;21.036;2022-12-18T09:30:46;40.70;;;22.52;;
35506;SDS011;36461;52.018;21.036;2022-12-18T09:33:15;40.33;;;23.40;;
35506;SDS011;36461;52.018;21.036;2022-12-18T09:35:43;48.40;;;25.23;;
35506;SDS011;36461;52.018;21.036;2022-12-18T09:38:12;43.42;;;24.27;;
35506;SDS011;36461;52.018;21.036;2022-12-18T09:40:46;43.40;;;24.98;;
35506;SDS011;36461;52.018;21.036;2022-12-18T09:43:35;49.27;;;26.30;;
35506;SDS011;36461;52.018;21.036;2022-12-18T09:46:03;39.08;;;21.17;;
35506;SDS011;36461;52.018;21.036;2022-12-18T09:48:38;40.23;;;22.52;;
35506;SDS011;36461;52.018;21.036;2022-12-18T09:51:18;46.30;;;24.52;;
35506;SDS011;36461;52.018;21.036;2022-12-18T09:53:56;39.58;;;21.42;;
35506;SDS011;36461;52.018;21.036;2022-12-18T09:56:28;42.00;;;22.17;;
35506;SDS011;36461;52.018;21.036;2022-12-18T09:59:01;39.70;;;21.97;;
35506;SDS011;36461;52.018;21.036;2022-12-18T10:01:31;40.83;;;22.42;;
35506;SDS011;36461;52.018;21.036;2022-12-18T10:03:59;43.05;;;23.62;;
35506;SDS011;36461;52.018;21.036;2022-12-18T10:09:09;41.83;;;22.95;;
35506;SDS011;36461;52.018;21.036;2022-12-18T10:20:22;40.30;;;21.85;;
35506;SDS011;36461;52.018;21.036;2022-12-18T10:25:34;49.77;;;25.55;;
35506;SDS011;36461;52.018;21.036;2022-12-18T10:28:32;41.95;;;22.82;;
35506;SDS011;36461;52.018;21.036;2022-12-18T10:31:02;47.98;;;24.07;;
35506;SDS011;36461;52.018;21.036;2022-12-18T10:33:32;37.80;;;22.05;;
35506;SDS011;36461;52.018;21.036;2022-12-18T10:35:59;43.33;;;22.73;;
35506;SDS011;36461;52.018;21.036;2022-12-18T10:38:27;47.50;;;24.40;;
35506;SDS011;36461;52.018;21.036;2022-12-18T10:41:01;45.00;;;23.73;;
35506;SDS011;36461;52.018;21.036;2022-12-18T10:43:37;43.98;;;23.83;;
35506;SDS011;36461;52.018;21.036;2022-12-18T10:49:04;40.60;;;22.55;;
35506;SDS011;36461;52.018;21.036;2022-12-18T10:53:59;46.50;;;23.32;;
35506;SDS011;36461;52.018;21.036;2022-12-18T10:56:31;44.48;;;23.98;;
35506;SDS011;36461;52.018;21.036;2022-12-18T10:59:05;53.78;;;26.33;;
35506;SDS011;36461;52.018;21.036;2022-12-18T11:04:21;43.15;;;24.35;;
35506;SDS011;36461;52.018;21.036;2022-12-18T11:06:55;72.37;;;36.90;;
35506;SDS011;36461;52.018;21.036;2022-12-18T11:09:31;46.60;;;25.40;;
35506;SDS011;36461;52.018;21.036;2022-12-18T11:12:01;47.58;;;26.05;;
35506;SDS011;36461;52.018;21.036;2022-12-18T11:17:21;38.17;;;20.43;;
35506;SDS011;36461;52.018;21.036;2022-12-18T11:19:56;41.85;;;22.17;;
35506;SDS011;36461;52.018;21.036;2022-12-18T11:27:33;36.03;;;19.60;;
35506;SDS011;36461;52.018;21.036;2022-12-18T11:30:20;33.38;;;19.45;;
35506;SDS011;36461;52.018;21.036;2022-12-18T11:32:51;34.13;;;18.57;;
35506;SDS011;36461;52.018;21.036;2022-12-18T11:35:38;38.48;;;20.85;;
35506;SDS011;36461;52.018;21.036;2022-12-18T11:38:22;36.60;;;19.95;;
35506;SDS011;36461;52.018;21.036;2022-12-18T11:40:57;47.55;;;27.35;;
35506;SDS011;36461;52.018;21.036;2022-12-18T11:46:23;32.95;;;18.65;;
35506;SDS011;36461;52.018;21.036;2022-12-18T11:49:07;38.63;;;21.57;;
35506;SDS011;36461;52.018;21.036;2022-12-18T11:51:57;36.45;;;20.10;;
35506;SDS011;36461;52.018;21.036;2022-12-18T11:54:42;39.25;;;20.52;;
35506;SDS011;36461;52.018;21.036;2022-12-18T12:03:06;36.03;;;20.15;;
35506;SDS011;36461;52.018;21.036;2022-12-18T12:08:40;40.98;;;22.13;;
35506;SDS011;36461;52.018;21.036;2022-12-18T12:14:23;35.05;;;19.27;;
35506;SDS011;36461;52.018;21.036;2022-12-18T12:23:03;43.73;;;23.22;;
35506;SDS011;36461;52.018;21.036;2022-12-18T12:25:52;49.18;;;27.32;;
35506;SDS011;36461;52.018;21.036;2022-12-18T12:34:21;33.90;;;18.80;;
35506;SDS011;36461;52.018;21.036;2022-12-18T12:39:47;42.08;;;25.05;;
35506;SDS011;36461;52.018;21.036;2022-12-18T12:42:17;40.60;;;21.25;;
35506;SDS011;36461;52.018;21.036;2022-12-18T12:45:18;34.20;;;19.52;;
35506;SDS011;36461;52.018;21.036;2022-12-18T12:47:54;35.78;;;19.55;;
35506;SDS011;36461;52.018;21.036;2022-12-18T12:50:23;34.88;;;20.15;;
35506;SDS011;36461;52.018;21.036;2022-12-18T12:52:55;34.15;;;19.50;;
35506;SDS011;36461;52.018;21.036;2022-12-18T12:55:25;37.60;;;20.05;;
35506;SDS011;36461;52.018;21.036;2022-12-18T13:00:50;36.75;;;20.08;;
35506;SDS011;36461;52.018;21.036;2022-12-18T13:03:41;37.20;;;20.25;;
35506;SDS011;36461;52.018;21.036;2022-12-18T13:09:14;32.67;;;18.73;;
35506;SDS011;36461;52.018;21.036;2022-12-18T13:11:48;34.63;;;19.82;;
35506;SDS011;36461;52.018;21.036;2022-12-18T13:14:35;35.03;;;20.65;;
35506;SDS011;36461;52.018;21.036;2022-12-18T13:22:46;33.48;;;18.82;;
35506;SDS011;36461;52.018;21.036;2022-12-18T13:38:42;37.42;;;22.22;;
35506;SDS011;36461;52.018;21.036;2022-12-18T13:43:45;35.75;;;20.27;;
35506;SDS011;36461;52.018;21.036;2022-12-18T13:48:58;34.58;;;19.30;;
35506;SDS011;36461;52.018;21.036;2022-12-18T13:51:32;34.58;;;19.25;;
35506;SDS011;36461;52.018;21.036;2022-12-18T13:54:02;35.23;;;19.77;;
35506;SDS011;36461;52.018;21.036;2022-12-18T13:56:42;34.63;;;19.77;;
35506;SDS011;36461;52.018;21.036;2022-12-18T13:59:20;45.92;;;23.02;;
35506;SDS011;36461;52.018;21.036;2022-12-18T14:04:48;47.03;;;24.07;;
35506;SDS011;36461;52.018;21.036;2022-12-18T14:07:26;42.65;;;23.62;;
35506;SDS011;36461;52.018;21.036;2022-12-18T14:09:57;34.58;;;20.30;;
35506;SDS011;36461;52.018;21.036;2022-12-18T14:12:27;32.53;;;19.35;;
35506;SDS011;36461;52.018;21.036;2022-12-18T14:18:03;35.90;;;19.70;;
35506;SDS011;36461;52.018;21.036;2022-12-18T14:20:51;33.02;;;17.82;;
35506;SDS011;36461;52.018;21.036;2022-12-18T14:23:34;34.23;;;19.20;;
35506;SDS011;36461;52.018;21.036;2022-12-18T14:26:20;34.58;;;18.67;;
35506;SDS011;36461;52.018;21.036;2022-12-18T14:28:52;59.60;;;33.58;;
35506;SDS011;36461;52.018;21.036;2022-12-18T14:31:22;47.00;;;26.95;;
35506;SDS011;36461;52.018;21.036;2022-12-18T14:33:51;40.08;;;22.32;;
35506;SDS011;36461;52.018;21.036;2022-12-18T14:36:24;42.58;;;25.20;;
35506;SDS011;36461;52.018;21.036;2022-12-18T14:38:55;45.60;;;26.62;;
35506;SDS011;36461;52.018;21.036;2022-12-18T14:41:25;36.13;;;21.60;;
35506;SDS011;36461;52.018;21.036;2022-12-18T14:43:53;32.63;;;18.92;;
35506;SDS011;36461;52.018;21.036;2022-12-18T14:49:05;31.15;;;17.65;;
35506;SDS011;36461;52.018;21.036;2022-12-18T14:52:01;27.07;;;17.07;;
35506;SDS011;36461;52.018;21.036;2022-12-18T14:54:35;27.20;;;16.00;;
35506;SDS011;36461;52.018;21.036;2022-12-18T15:00:07;31.90;;;16.70;;
35506;SDS011;36461;52.018;21.036;2022-12-18T15:02:54;28.32;;;16.27;;
35506;SDS011;36461;52.018;21.036;2022-12-18T15:05:26;29.80;;;17.07;;
35506;SDS011;36461;52.018;21.036;2022-12-18T15:07:56;29.95;;;16.60;;
35506;SDS011;36461;52.018;21.036;2022-12-18T15:10:27;29.30;;;15.88;;
35506;SDS011;36461;52.018;21.036;2022-12-18T15:20:46;27.42;;;15.40;;
35506;SDS011;36461;52.018;21.036;2022-12-18T15:23:22;28.12;;;16.27;;
35506;SDS011;36461;52.018;21.036;2022-12-18T15:26:02;26.80;;;15.35;;
35506;SDS011;36461;52.018;21.036;2022-12-18T15:28:34;29.18;;;14.63;;
35506;SDS011;36461;52.018;21.036;2022-12-18T15:33:43;29.18;;;16.60;;
35506;SDS011;36461;52.018;21.036;2022-12-18T15:36:16;27.15;;;15.43;;
35506;SDS011;36461;52.018;21.036;2022-12-18T15:38:50;30.95;;;16.87;;
35506;SDS011;36461;52.018;21.036;2022-12-18T15:41:17;31.77;;;16.30;;
35506;SDS011;36461;52.018;21.036;2022-12-18T15:43:50;30.12;;;16.40;;
35506;SDS011;36461;52.018;21.036;2022-12-18T15:46:19;26.95;;;15.55;;
35506;SDS011;36461;52.018;21.036;2022-12-18T15:48:49;31.93;;;17.12;;
35506;SDS011;36461;52.018;21.036;2022-12-18T15:51:23;30.90;;;16.40;;
35506;SDS011;36461;52.018;21.036;2022-12-18T15:54:00;33.10;;;18.52;;
35506;SDS011;36461;52.018;21.036;2022-12-18T15:56:31;34.85;;;20.02;;
35506;SDS011;36461;52.018;21.036;2022-12-18T16:01:51;27.90;;;15.70;;
35506;SDS011;36461;52.018;21.036;2022-12-18T16:04:17;33.10;;;17.45;;
35506;SDS011;36461;52.018;21.036;2022-12-18T16:06:49;29.35;;;16.57;;
35506;SDS011;36461;52.018;21.036;2022-12-18T16:09:17;29.55;;;16.35;;
35506;SDS011;36461;52.018;21.036;2022-12-18T16:11:44;30.43;;;17.32;;
35506;SDS011;36461;52.018;21.036;2022-12-18T16:16:52;31.75;;;18.10;;
35506;SDS011;36461;52.018;21.036;2022-12-18T16:19:22;33.92;;;19.15;;
35506;SDS011;36461;52.018;21.036;2022-12-18T16:21:50;34.65;;;19.80;;
35506;SDS011;36461;52.018;21.036;2022-12-18T16:24:20;34.48;;;20.57;;
35506;SDS011;36461;52.018;21.036;2022-12-18T16:26:49;35.98;;;19.82;;
35506;SDS011;36461;52.018;21.036;2022-12-18T16:29:18;37.55;;;20.12;;
35506;SDS011;36461;52.018;21.036;2022-12-18T16:31:47;36.40;;;20.30;;
35506;SDS011;36461;52.018;21.036;2022-12-18T16:36:57;36.25;;;20.92;;
35506;SDS011;36461;52.018;21.036;2022-12-18T16:39:30;36.70;;;19.80;;
35506;SDS011;36461;52.018;21.036;2022-12-18T16:41:58;33.88;;;20.00;;
35506;SDS011;36461;52.018;21.036;2022-12-18T16:44:26;36.65;;;20.48;;
35506;SDS011;36461;52.018;21.036;2022-12-18T16:46:53;38.08;;;19.55;;
35506;SDS011;36461;52.018;21.036;2022-12-18T16:54:13;28.55;;;16.87;;
35506;SDS011;36461;52.018;21.036;2022-12-18T16:56:40;34.18;;;19.30;;
35506;SDS011;36461;52.018;21.036;2022-12-18T16:59:09;42.55;;;22.00;;
35506;SDS011;36461;52.018;21.036;2022-12-18T17:01:37;37.08;;;20.97;;
35506;SDS011;36461;52.018;21.036;2022-12-18T17:04:06;41.13;;;22.22;;
35506;SDS011;36461;52.018;21.036;2022-12-18T17:06:37;35.58;;;20.23;;
35506;SDS011;36461;52.018;21.036;2022-12-18T17:09:06;35.92;;;20.15;;
35506;SDS011;36461;52.018;21.036;2022-12-18T17:11:36;32.65;;;19.00;;
35506;SDS011;36461;52.018;21.036;2022-12-18T17:14:06;36.13;;;19.27;;
35506;SDS011;36461;52.018;21.036;2022-12-18T17:16:39;33.80;;;18.82;;
35506;SDS011;36461;52.018;21.036;2022-12-18T17:19:06;31.55;;;18.00;;
35506;SDS011;36461;52.018;21.036;2022-12-18T17:23:59;28.65;;;17.52;;
35506;SDS011;36461;52.018;21.036;2022-12-18T17:26:27;34.20;;;19.17;;
35506;SDS011;36461;52.018;21.036;2022-12-18T17:28:55;30.90;;;17.60;;
35506;SDS011;36461;52.018;21.036;2022-12-18T17:31:24;32.35;;;17.32;;
35506;SDS011;36461;52.018;21.036;2022-12-18T17:33:53;34.00;;;17.95;;
35506;SDS011;36461;52.018;21.036;2022-12-18T17:36:21;33.23;;;19.20;;
35506;SDS011;36461;52.018;21.036;2022-12-18T17:38:50;34.83;;;19.05;;
35506;SDS011;36461;52.018;21.036;2022-12-18T17:41:18;37.98;;;20.52;;
35506;SDS011;36461;52.018;21.036;2022-12-18T17:43:58;35.58;;;19.48;;
35506;SDS011;36461;52.018;21.036;2022-12-18T17:46:28;34.60;;;19.27;;